createdAt,value
2022-11-30T00:00:24.633Z,99.93
2022-11-30T00:00:56.474Z,100.00
2022-11-30T00:01:30.664Z,100.00
2022-11-30T00:02:02.147Z,99.92
2022-11-30T00:02:34.822Z,99.35
2022-11-30T00:03:08.548Z,99.66
2022-11-30T00:03:40.482Z,99.37
2022-11-30T00:04:14.544Z,99.38
2022-11-30T00:04:46.208Z,99.25
2022-11-30T00:05:17.853Z,98.98
2022-11-30T00:05:49.323Z,99.61
2022-11-30T00:06:41.550Z,99.87
2022-11-30T00:07:12.985Z,99.57
2022-11-30T00:07:44.417Z,99.75
2022-11-30T00:08:16.021Z,100.00
2022-11-30T00:08:47.373Z,100.00
2022-11-30T00:09:18.743Z,99.96
2022-11-30T00:09:50.054Z,100.00
2022-11-30T00:10:27.847Z,100.00
2022-11-30T00:10:59.223Z,99.73
2022-11-30T00:11:30.757Z,99.94
2022-11-30T00:12:02.115Z,99.71
2022-11-30T00:12:36.749Z,99.98
2022-11-30T00:13:08.640Z,100.00
2022-11-30T00:13:40.677Z,100.00
2022-11-30T00:14:12.131Z,100.00
2022-11-30T00:14:43.607Z,100.00
2022-11-30T00:15:17.412Z,99.76
2022-11-30T00:15:49.072Z,100.00
2022-11-30T00:16:20.832Z,100.00
2022-11-30T00:16:52.294Z,100.00
2022-11-30T00:17:23.861Z,100.00
2022-11-30T00:17:59.000Z,100.00
2022-11-30T00:18:33.132Z,100.00
2022-11-30T00:19:04.480Z,100.00
2022-11-30T00:19:35.798Z,100.00
2022-11-30T00:20:09.130Z,100.00
2022-11-30T00:20:40.551Z,100.00
2022-11-30T00:21:13.844Z,100.00
2022-11-30T00:21:48.124Z,100.00
2022-11-30T00:22:19.589Z,100.00
2022-11-30T00:22:51.002Z,99.70
2022-11-30T00:23:22.501Z,99.85
2022-11-30T00:23:56.399Z,100.00
2022-11-30T00:24:30.769Z,100.00
2022-11-30T00:25:04.656Z,100.00
2022-11-30T00:25:37.327Z,100.00
2022-11-30T00:26:12.805Z,99.82
2022-11-30T00:26:44.211Z,100.00
2022-11-30T00:27:15.549Z,100.00
2022-11-30T00:27:47.064Z,100.00
2022-11-30T00:28:18.434Z,99.98
2022-11-30T00:28:49.836Z,100.00
2022-11-30T00:29:21.316Z,100.00
2022-11-30T00:29:52.671Z,100.00
2022-11-30T00:30:24.121Z,100.00
2022-11-30T00:31:04.617Z,100.00
2022-11-30T00:31:36.137Z,100.00
2022-11-30T00:32:07.460Z,100.00
2022-11-30T00:32:39.021Z,100.00
2022-11-30T00:33:10.473Z,100.00
2022-11-30T00:33:44.467Z,100.00
2022-11-30T00:34:19.106Z,100.00
2022-11-30T00:34:50.565Z,100.00
2022-11-30T00:35:22.053Z,100.00
2022-11-30T00:35:57.960Z,100.00
2022-11-30T00:36:29.717Z,99.91
2022-11-30T00:37:01.179Z,100.00
2022-11-30T00:37:34.644Z,100.00
2022-11-30T00:38:06.035Z,100.00
2022-11-30T00:38:37.858Z,99.83
2022-11-30T00:39:09.317Z,100.00
2022-11-30T00:39:40.998Z,99.87
2022-11-30T00:40:13.029Z,99.86
2022-11-30T00:40:46.778Z,99.58
2022-11-30T00:41:21.879Z,100.00
2022-11-30T00:41:53.320Z,100.00
2022-11-30T00:42:24.738Z,100.00
2022-11-30T00:42:56.515Z,100.00
2022-11-30T00:43:28.787Z,99.68
2022-11-30T00:44:00.277Z,100.00
2022-11-30T00:44:50.130Z,100.00
2022-11-30T00:45:21.621Z,99.99
2022-11-30T00:45:53.996Z,99.94
2022-11-30T00:46:25.486Z,99.82
2022-11-30T00:46:56.858Z,99.87
2022-11-30T00:47:28.267Z,99.89
2022-11-30T00:47:59.630Z,99.81
2022-11-30T00:48:31.216Z,99.77
2022-11-30T00:49:02.674Z,100.00
2022-11-30T00:49:37.083Z,99.72
2022-11-30T00:50:09.119Z,99.55
2022-11-30T00:50:40.712Z,99.58
2022-11-30T00:51:12.543Z,99.48
2022-11-30T00:51:43.916Z,99.25
2022-11-30T00:52:15.345Z,99.03
2022-11-30T00:52:46.705Z,99.31
2022-11-30T00:53:18.825Z,99.60
2022-11-30T00:53:50.273Z,99.28
2022-11-30T00:54:21.897Z,99.38
2022-11-30T00:54:53.321Z,99.63
2022-11-30T00:55:24.756Z,99.76
2022-11-30T00:55:56.503Z,99.69
2022-11-30T00:56:30.298Z,99.23
2022-11-30T00:57:01.735Z,99.61
2022-11-30T00:57:33.471Z,99.55
2022-11-30T00:58:07.094Z,99.52
2022-11-30T00:58:38.910Z,99.58
2022-11-30T00:59:28.635Z,99.57
2022-11-30T01:00:00.001Z,99.65
2022-11-30T01:00:31.374Z,99.12
2022-11-30T01:01:03.234Z,99.71
2022-11-30T01:01:35.852Z,99.50
2022-11-30T01:02:07.418Z,99.62
2022-11-30T01:02:38.859Z,99.35
2022-11-30T01:03:10.374Z,99.24
2022-11-30T01:03:41.761Z,99.25
2022-11-30T01:04:17.206Z,99.33
2022-11-30T01:04:52.031Z,99.78
2022-11-30T01:05:23.417Z,99.43
2022-11-30T01:05:55.030Z,99.17
2022-11-30T01:06:26.618Z,99.31
2022-11-30T01:06:58.160Z,99.14
2022-11-30T01:07:29.665Z,99.35
2022-11-30T01:08:02.870Z,99.02
2022-11-30T01:08:34.948Z,99.29
2022-11-30T01:09:09.289Z,99.21
2022-11-30T01:09:41.021Z,99.00
2022-11-30T01:10:12.562Z,98.98
2022-11-30T01:10:44.581Z,99.46
2022-11-30T01:11:23.854Z,99.39
2022-11-30T01:11:55.213Z,99.39
2022-11-30T01:12:26.648Z,99.28
2022-11-30T01:12:58.013Z,98.91
2022-11-30T01:13:29.873Z,99.26
2022-11-30T01:14:02.375Z,98.98
2022-11-30T01:14:52.276Z,99.10
2022-11-30T01:15:23.783Z,99.27
2022-11-30T01:15:55.256Z,99.02
2022-11-30T01:16:29.930Z,99.04
2022-11-30T01:17:01.331Z,98.67
2022-11-30T01:17:51.464Z,99.21
2022-11-30T01:18:24.278Z,98.65
2022-11-30T01:18:56.034Z,98.70
2022-11-30T01:19:27.485Z,98.94
2022-11-30T01:19:59.101Z,98.52
2022-11-30T01:20:30.587Z,98.61
2022-11-30T01:21:06.173Z,98.52
2022-11-30T01:21:38.261Z,98.31
2022-11-30T01:22:09.680Z,98.75
2022-11-30T01:22:41.083Z,98.27
2022-11-30T01:23:12.644Z,98.52
2022-11-30T01:23:45.653Z,98.63
2022-11-30T01:24:17.049Z,98.76
2022-11-30T01:24:48.727Z,98.96
2022-11-30T01:25:20.328Z,98.85
2022-11-30T01:25:55.425Z,99.02
2022-11-30T01:26:26.888Z,99.04
2022-11-30T01:26:58.220Z,99.18
2022-11-30T01:27:29.545Z,99.46
2022-11-30T01:28:03.958Z,98.56
2022-11-30T01:28:37.819Z,99.06
2022-11-30T01:29:09.174Z,98.97
2022-11-30T01:29:41.394Z,98.92
2022-11-30T01:30:14.751Z,98.80
2022-11-30T01:30:56.209Z,98.70
2022-11-30T01:31:27.704Z,98.49
2022-11-30T01:31:59.053Z,98.68
2022-11-30T01:32:30.609Z,99.30
2022-11-30T01:33:03.927Z,98.78
2022-11-30T01:33:36.054Z,98.85
2022-11-30T01:34:07.571Z,98.95
2022-11-30T01:34:41.290Z,99.09
2022-11-30T01:35:12.958Z,99.22
2022-11-30T01:35:44.469Z,98.84
2022-11-30T01:36:19.151Z,98.68
2022-11-30T01:36:50.492Z,98.72
2022-11-30T01:37:21.951Z,98.48
2022-11-30T01:37:53.862Z,99.01
2022-11-30T01:38:25.236Z,98.44
2022-11-30T01:38:57.992Z,99.26
2022-11-30T01:39:29.383Z,99.11
2022-11-30T01:40:00.948Z,98.51
2022-11-30T01:40:32.324Z,99.02
2022-11-30T01:41:07.422Z,99.34
2022-11-30T01:41:41.224Z,99.39
2022-11-30T01:42:20.253Z,98.87
2022-11-30T01:42:51.592Z,99.25
2022-11-30T01:43:37.780Z,99.05
2022-11-30T01:44:19.481Z,98.81
2022-11-30T01:44:56.663Z,98.96
2022-11-30T01:45:28.081Z,99.11
2022-11-30T01:45:59.493Z,99.38
2022-11-30T01:46:38.432Z,99.78
2022-11-30T01:47:11.808Z,99.91
2022-11-30T01:47:51.957Z,99.48
2022-11-30T01:48:23.429Z,99.53
2022-11-30T01:49:05.601Z,99.15
2022-11-30T01:49:44.634Z,99.78
2022-11-30T01:50:30.038Z,99.71
2022-11-30T01:51:01.658Z,99.07
2022-11-30T01:51:39.196Z,100.00
2022-11-30T01:52:19.288Z,99.84
2022-11-30T01:52:54.384Z,99.31
2022-11-30T01:53:25.901Z,99.68
2022-11-30T01:54:03.684Z,100.00
2022-11-30T01:54:50.311Z,99.72
2022-11-30T01:55:24.369Z,99.24
2022-11-30T01:55:55.769Z,99.68
2022-11-30T01:56:27.460Z,99.70
2022-11-30T01:57:22.757Z,99.47
2022-11-30T01:58:16.768Z,99.51
2022-11-30T01:58:48.931Z,99.74
2022-11-30T01:59:23.037Z,99.40
2022-11-30T01:59:59.447Z,99.98
2022-11-30T02:00:31.054Z,99.11
2022-11-30T02:01:04.027Z,99.30
2022-11-30T02:01:38.067Z,99.52
2022-11-30T02:02:09.663Z,99.17
2022-11-30T02:03:02.289Z,99.80
2022-11-30T02:03:46.182Z,99.85
2022-11-30T02:04:47.231Z,99.92
2022-11-30T02:05:20.318Z,99.37
2022-11-30T02:05:51.919Z,99.56
2022-11-30T02:06:25.247Z,99.76
2022-11-30T02:06:58.322Z,99.94
2022-11-30T02:07:29.756Z,99.93
2022-11-30T02:08:01.715Z,99.39
2022-11-30T02:08:33.419Z,99.87
2022-11-30T02:09:05.068Z,99.48
2022-11-30T02:09:43.190Z,99.85
2022-11-30T02:10:17.926Z,99.51
2022-11-30T02:10:55.671Z,99.80
2022-11-30T02:11:28.685Z,99.58
2022-11-30T02:12:01.190Z,99.91
2022-11-30T02:12:41.848Z,99.76
2022-11-30T02:13:20.438Z,99.69
2022-11-30T02:14:16.284Z,100.00
2022-11-30T02:14:53.722Z,99.91
2022-11-30T02:15:31.378Z,100.00
2022-11-30T02:16:35.183Z,100.00
2022-11-30T02:17:27.156Z,100.00
2022-11-30T02:18:09.478Z,99.61
2022-11-30T02:18:54.449Z,100.00
2022-11-30T02:19:47.568Z,99.34
2022-11-30T02:20:56.074Z,100.00
2022-11-30T02:21:41.082Z,99.66
2022-11-30T02:22:32.706Z,100.00
2022-11-30T02:23:41.804Z,99.47
2022-11-30T02:24:28.022Z,99.50
2022-11-30T02:25:16.595Z,100.00
2022-11-30T02:26:11.394Z,99.70
2022-11-30T02:26:48.577Z,99.47
2022-11-30T02:27:53.732Z,99.66
2022-11-30T02:28:36.857Z,100.00
2022-11-30T02:29:29.822Z,100.00
2022-11-30T02:30:06.843Z,100.00
2022-11-30T02:30:42.899Z,100.00
2022-11-30T02:31:20.444Z,100.00
2022-11-30T02:32:05.230Z,100.00
2022-11-30T02:32:44.803Z,100.00
2022-11-30T02:33:25.502Z,99.89
2022-11-30T02:33:59.340Z,100.00
2022-11-30T02:34:34.132Z,99.78
2022-11-30T02:35:07.787Z,100.00
2022-11-30T02:35:44.074Z,99.77
2022-11-30T02:36:16.021Z,99.72
2022-11-30T02:36:48.288Z,100.00
2022-11-30T02:37:22.449Z,99.89
2022-11-30T02:37:54.729Z,99.95
2022-11-30T02:38:45.540Z,99.66
2022-11-30T02:39:21.163Z,100.00
2022-11-30T02:39:52.679Z,100.00
2022-11-30T02:40:27.242Z,100.00
2022-11-30T02:41:00.700Z,99.71
2022-11-30T02:41:38.250Z,99.77
2022-11-30T02:42:14.560Z,99.89
2022-11-30T02:42:48.150Z,100.00
2022-11-30T02:43:26.230Z,100.00
2022-11-30T02:44:01.201Z,100.00
2022-11-30T02:44:32.679Z,100.00
2022-11-30T02:45:04.911Z,99.77
2022-11-30T02:45:45.027Z,100.00
2022-11-30T02:46:26.615Z,100.00
2022-11-30T02:47:15.306Z,100.00
2022-11-30T02:48:09.926Z,100.00
2022-11-30T02:48:52.162Z,99.76
2022-11-30T02:49:30.579Z,99.98
2022-11-30T02:50:08.655Z,100.00
2022-11-30T02:50:48.502Z,99.54
2022-11-30T02:51:24.505Z,100.00
2022-11-30T02:51:58.379Z,100.00
2022-11-30T02:52:31.876Z,99.78
2022-11-30T02:53:03.355Z,99.61
2022-11-30T02:53:34.834Z,99.93
2022-11-30T02:54:06.338Z,99.97
2022-11-30T02:54:38.056Z,100.00
2022-11-30T02:55:14.681Z,99.85
2022-11-30T02:55:48.333Z,99.72
2022-11-30T02:56:20.565Z,100.00
2022-11-30T02:56:51.999Z,99.86
2022-11-30T02:57:23.345Z,99.67
2022-11-30T02:57:54.743Z,99.80
2022-11-30T02:58:26.423Z,99.44
2022-11-30T02:58:57.969Z,100.00
2022-11-30T02:59:29.866Z,100.00
2022-11-30T03:00:06.902Z,100.00
2022-11-30T03:00:38.292Z,99.75
2022-11-30T03:01:09.713Z,99.77
2022-11-30T03:01:42.729Z,100.00
2022-11-30T03:02:14.452Z,99.40
2022-11-30T03:02:46.020Z,99.90
2022-11-30T03:03:17.473Z,99.76
2022-11-30T03:03:48.980Z,100.00
2022-11-30T03:04:20.346Z,99.70
2022-11-30T03:05:12.043Z,99.98
2022-11-30T03:05:43.383Z,99.45
2022-11-30T03:06:14.750Z,99.74
2022-11-30T03:06:46.143Z,99.94
2022-11-30T03:07:17.568Z,99.70
2022-11-30T03:07:49.217Z,100.00
2022-11-30T03:08:20.631Z,99.87
2022-11-30T03:08:53.501Z,99.85
2022-11-30T03:09:25.111Z,99.55
2022-11-30T03:10:00.256Z,99.78
2022-11-30T03:10:31.658Z,99.92
2022-11-30T03:11:04.728Z,99.87
2022-11-30T03:11:37.029Z,99.68
2022-11-30T03:12:08.467Z,99.71
2022-11-30T03:12:39.810Z,99.96
2022-11-30T03:13:11.377Z,99.53
2022-11-30T03:13:43.093Z,99.97
2022-11-30T03:14:14.547Z,99.45
2022-11-30T03:14:53.931Z,99.81
2022-11-30T03:15:25.946Z,99.92
2022-11-30T03:15:57.357Z,99.72
2022-11-30T03:16:28.828Z,100.00
2022-11-30T03:17:00.601Z,99.54
2022-11-30T03:17:31.946Z,99.81
2022-11-30T03:18:04.407Z,100.00
2022-11-30T03:18:36.190Z,100.00
2022-11-30T03:19:07.958Z,99.96
2022-11-30T03:19:39.505Z,100.00
2022-11-30T03:20:11.215Z,99.72
2022-11-30T03:20:43.250Z,99.19
2022-11-30T03:21:14.608Z,100.00
2022-11-30T03:21:47.823Z,99.34
2022-11-30T03:22:19.226Z,100.00
2022-11-30T03:22:50.697Z,99.83
2022-11-30T03:23:22.221Z,99.97
2022-11-30T03:23:55.970Z,99.88
2022-11-30T03:24:27.526Z,99.88
2022-11-30T03:24:59.065Z,99.85
2022-11-30T03:25:30.904Z,100.00
2022-11-30T03:26:03.418Z,100.00
2022-11-30T03:26:34.871Z,100.00
2022-11-30T03:27:06.263Z,100.00
2022-11-30T03:27:37.854Z,99.68
2022-11-30T03:28:09.333Z,100.00
2022-11-30T03:28:40.802Z,100.00
2022-11-30T03:29:31.034Z,100.00
2022-11-30T03:30:03.093Z,99.82
2022-11-30T03:30:34.493Z,99.47
2022-11-30T03:31:06.103Z,99.90
2022-11-30T03:31:37.718Z,99.75
2022-11-30T03:32:09.472Z,100.00
2022-11-30T03:32:40.884Z,99.96
2022-11-30T03:33:12.264Z,100.00
2022-11-30T03:33:49.236Z,99.96
2022-11-30T03:34:20.765Z,100.00
2022-11-30T03:34:52.262Z,99.93
2022-11-30T03:35:23.870Z,99.86
2022-11-30T03:36:10.358Z,99.54
2022-11-30T03:36:41.778Z,99.84
2022-11-30T03:37:31.992Z,99.60
2022-11-30T03:38:03.339Z,99.97
2022-11-30T03:38:35.000Z,99.92
2022-11-30T03:39:09.495Z,100.00
2022-11-30T03:39:41.182Z,100.00
2022-11-30T03:40:12.838Z,99.73
2022-11-30T03:40:47.167Z,100.00
2022-11-30T03:41:18.909Z,99.64
2022-11-30T03:41:50.957Z,100.00
2022-11-30T03:42:22.307Z,100.00
2022-11-30T03:42:53.744Z,99.98
2022-11-30T03:43:25.184Z,100.00
2022-11-30T03:43:56.691Z,99.81
2022-11-30T03:44:29.772Z,100.00
2022-11-30T03:45:01.124Z,99.81
2022-11-30T03:45:32.534Z,99.93
2022-11-30T03:46:04.317Z,100.00
2022-11-30T03:46:35.906Z,99.61
2022-11-30T03:47:07.500Z,99.91
2022-11-30T03:47:38.932Z,99.91
2022-11-30T03:48:10.244Z,99.96
2022-11-30T03:48:41.654Z,100.00
2022-11-30T03:49:16.374Z,99.95
2022-11-30T03:49:47.747Z,100.00
2022-11-30T03:50:19.149Z,100.00
2022-11-30T03:50:51.042Z,99.95
2022-11-30T03:51:22.584Z,100.00
2022-11-30T03:51:56.245Z,100.00
2022-11-30T03:52:27.969Z,100.00
2022-11-30T03:52:59.285Z,100.00
2022-11-30T03:53:33.031Z,99.80
2022-11-30T03:54:04.456Z,99.85
2022-11-30T03:54:36.099Z,100.00
2022-11-30T03:55:08.117Z,100.00
2022-11-30T03:55:39.518Z,100.00
2022-11-30T03:56:11.853Z,100.00
2022-11-30T03:56:43.256Z,100.00
2022-11-30T03:57:14.644Z,99.96
2022-11-30T03:57:46.079Z,100.00
2022-11-30T03:58:17.624Z,99.76
2022-11-30T03:58:49.069Z,100.00
2022-11-30T03:59:20.768Z,100.00
2022-11-30T03:59:52.380Z,100.00
2022-11-30T04:00:23.936Z,99.96
2022-11-30T04:01:00.880Z,99.98
2022-11-30T04:01:32.566Z,100.00
2022-11-30T04:02:04.101Z,100.00
2022-11-30T04:02:38.948Z,100.00
2022-11-30T04:03:13.121Z,100.00
2022-11-30T04:03:44.914Z,100.00
2022-11-30T04:04:16.510Z,100.00
2022-11-30T04:04:48.339Z,100.00
2022-11-30T04:05:23.082Z,100.00
2022-11-30T04:05:57.627Z,100.00
2022-11-30T04:06:29.138Z,100.00
2022-11-30T04:07:00.741Z,100.00
2022-11-30T04:07:32.116Z,100.00
2022-11-30T04:08:06.298Z,100.00
2022-11-30T04:08:38.419Z,100.00
2022-11-30T04:09:10.731Z,99.97
2022-11-30T04:09:42.355Z,100.00
2022-11-30T04:10:13.751Z,100.00
2022-11-30T04:10:51.203Z,100.00
2022-11-30T04:11:22.624Z,100.00
2022-11-30T04:11:54.011Z,100.00
2022-11-30T04:12:25.341Z,100.00
2022-11-30T04:12:56.758Z,100.00
2022-11-30T04:13:29.295Z,100.00
2022-11-30T04:14:02.461Z,100.00
2022-11-30T04:14:33.913Z,100.00
2022-11-30T04:15:05.960Z,100.00
2022-11-30T04:15:37.542Z,100.00
2022-11-30T04:16:09.462Z,100.00
2022-11-30T04:16:40.924Z,100.00
2022-11-30T04:17:12.323Z,100.00
2022-11-30T04:17:43.900Z,100.00
2022-11-30T04:18:15.796Z,100.00
2022-11-30T04:18:50.353Z,100.00
2022-11-30T04:19:21.763Z,100.00
2022-11-30T04:19:53.123Z,100.00
2022-11-30T04:20:24.518Z,100.00
2022-11-30T04:20:59.938Z,100.00
2022-11-30T04:21:31.506Z,100.00
2022-11-30T04:22:02.877Z,100.00
2022-11-30T04:22:34.391Z,100.00
2022-11-30T04:23:08.608Z,100.00
2022-11-30T04:23:40.414Z,100.00
2022-11-30T04:24:12.070Z,100.00
2022-11-30T04:24:43.505Z,100.00
2022-11-30T04:25:17.838Z,100.00
2022-11-30T04:25:50.006Z,100.00
2022-11-30T04:26:21.566Z,100.00
2022-11-30T04:26:53.081Z,99.95
2022-11-30T04:27:24.493Z,100.00
2022-11-30T04:27:58.797Z,100.00
2022-11-30T04:28:30.229Z,100.00
2022-11-30T04:29:04.485Z,100.00
2022-11-30T04:29:36.266Z,100.00
2022-11-30T04:30:08.342Z,100.00
2022-11-30T04:30:40.207Z,100.00
2022-11-30T04:31:30.374Z,100.00
2022-11-30T04:32:01.837Z,100.00
2022-11-30T04:32:33.275Z,100.00
2022-11-30T04:33:05.338Z,100.00
2022-11-30T04:33:36.682Z,100.00
2022-11-30T04:34:08.156Z,100.00
2022-11-30T04:34:39.488Z,100.00
2022-11-30T04:35:11.530Z,100.00
2022-11-30T04:35:50.174Z,100.00
2022-11-30T04:36:21.914Z,99.94
2022-11-30T04:36:57.412Z,99.94
2022-11-30T04:37:31.775Z,100.00
2022-11-30T04:38:03.297Z,100.00
2022-11-30T04:38:38.855Z,100.00
2022-11-30T04:39:10.349Z,99.92
2022-11-30T04:39:41.823Z,100.00
2022-11-30T04:40:13.400Z,99.82
2022-11-30T04:40:45.026Z,100.00
2022-11-30T04:41:16.780Z,100.00
2022-11-30T04:41:48.210Z,100.00
2022-11-30T04:42:19.598Z,100.00
2022-11-30T04:42:51.083Z,100.00
2022-11-30T04:43:23.572Z,100.00
2022-11-30T04:43:54.970Z,100.00
2022-11-30T04:44:26.398Z,100.00
2022-11-30T04:44:57.996Z,100.00
2022-11-30T04:45:35.085Z,100.00
2022-11-30T04:46:07.406Z,100.00
2022-11-30T04:46:38.974Z,100.00
2022-11-30T04:47:12.072Z,100.00
2022-11-30T04:47:43.794Z,100.00
2022-11-30T04:48:16.572Z,100.00
2022-11-30T04:48:48.179Z,100.00
2022-11-30T04:49:19.638Z,100.00
2022-11-30T04:49:54.178Z,100.00
2022-11-30T04:50:25.697Z,100.00
2022-11-30T04:51:05.983Z,100.00
2022-11-30T04:51:37.452Z,100.00
2022-11-30T04:52:08.940Z,100.00
2022-11-30T04:52:43.199Z,100.00
2022-11-30T04:53:14.779Z,100.00
2022-11-30T04:53:46.200Z,100.00
2022-11-30T04:54:17.551Z,100.00
2022-11-30T04:54:52.324Z,100.00
2022-11-30T04:55:24.104Z,100.00
2022-11-30T04:55:55.833Z,100.00
2022-11-30T04:56:27.175Z,100.00
2022-11-30T04:56:58.679Z,100.00
2022-11-30T04:57:30.661Z,100.00
2022-11-30T04:58:05.555Z,100.00
2022-11-30T04:58:38.931Z,100.00
2022-11-30T04:59:10.479Z,100.00
2022-11-30T04:59:41.908Z,100.00
2022-11-30T05:00:15.583Z,100.00
2022-11-30T05:00:49.082Z,100.00
2022-11-30T05:01:20.669Z,100.00
2022-11-30T05:01:52.116Z,100.00
2022-11-30T05:02:23.472Z,100.00
2022-11-30T05:02:56.454Z,100.00
2022-11-30T05:03:28.019Z,99.91
2022-11-30T05:04:01.491Z,100.00
2022-11-30T05:04:33.061Z,100.00
2022-11-30T05:05:07.302Z,100.00
2022-11-30T05:05:38.656Z,100.00
2022-11-30T05:06:10.316Z,100.00
2022-11-30T05:06:41.931Z,100.00
2022-11-30T05:07:15.471Z,100.00
2022-11-30T05:08:15.136Z,100.00
2022-11-30T05:08:46.647Z,100.00
2022-11-30T05:09:18.217Z,100.00
2022-11-30T05:09:49.689Z,100.00
2022-11-30T05:10:21.450Z,100.00
2022-11-30T05:10:54.176Z,100.00
2022-11-30T05:11:25.495Z,100.00
2022-11-30T05:11:56.900Z,100.00
2022-11-30T05:12:28.300Z,100.00
2022-11-30T05:12:59.768Z,100.00
2022-11-30T05:13:31.277Z,100.00
2022-11-30T05:14:02.808Z,100.00
2022-11-30T05:14:34.388Z,100.00
2022-11-30T05:15:06.466Z,100.00
2022-11-30T05:15:37.815Z,100.00
2022-11-30T05:16:10.657Z,100.00
2022-11-30T05:16:42.366Z,100.00
2022-11-30T05:17:13.793Z,100.00
2022-11-30T05:17:45.257Z,100.00
2022-11-30T05:18:16.852Z,100.00
2022-11-30T05:18:48.303Z,100.00
2022-11-30T05:19:19.891Z,100.00
2022-11-30T05:19:53.397Z,99.89
2022-11-30T05:20:24.913Z,99.78
2022-11-30T05:20:56.293Z,100.00
2022-11-30T05:21:27.626Z,100.00
2022-11-30T05:21:59.035Z,99.99
2022-11-30T05:22:30.467Z,100.00
2022-11-30T05:23:01.897Z,100.00
2022-11-30T05:23:33.595Z,100.00
2022-11-30T05:24:05.215Z,100.00
2022-11-30T05:24:37.105Z,100.00
2022-11-30T05:25:27.001Z,100.00
2022-11-30T05:26:01.830Z,100.00
2022-11-30T05:26:34.454Z,100.00
2022-11-30T05:27:12.703Z,100.00
2022-11-30T05:27:45.908Z,100.00
2022-11-30T05:28:17.344Z,100.00
2022-11-30T05:28:48.751Z,100.00
2022-11-30T05:29:20.350Z,100.00
2022-11-30T05:29:51.749Z,100.00
2022-11-30T05:30:24.356Z,100.00
2022-11-30T05:30:55.858Z,100.00
2022-11-30T05:31:27.359Z,100.00
2022-11-30T05:32:01.921Z,100.00
2022-11-30T05:32:33.410Z,100.00
2022-11-30T05:33:05.052Z,100.00
2022-11-30T05:33:36.614Z,100.00
2022-11-30T05:34:08.202Z,100.00
2022-11-30T05:34:50.487Z,100.00
2022-11-30T05:35:22.257Z,100.00
2022-11-30T05:35:56.727Z,100.00
2022-11-30T05:36:30.564Z,100.00
2022-11-30T05:37:02.071Z,100.00
2022-11-30T05:37:33.671Z,100.00
2022-11-30T05:38:05.575Z,100.00
2022-11-30T05:38:36.949Z,100.00
2022-11-30T05:39:08.401Z,100.00
2022-11-30T05:39:39.791Z,100.00
2022-11-30T05:40:11.588Z,100.00
2022-11-30T05:40:43.105Z,100.00
2022-11-30T05:41:14.946Z,100.00
2022-11-30T05:41:46.493Z,100.00
2022-11-30T05:42:18.083Z,100.00
2022-11-30T05:42:55.206Z,100.00
2022-11-30T05:43:26.892Z,100.00
2022-11-30T05:43:58.676Z,100.00
2022-11-30T05:44:32.711Z,100.00
2022-11-30T05:45:04.514Z,99.96
2022-11-30T05:45:35.971Z,100.00
2022-11-30T05:46:09.324Z,100.00
2022-11-30T05:46:41.266Z,100.00
2022-11-30T05:47:15.158Z,100.00
2022-11-30T05:47:47.965Z,100.00
2022-11-30T05:48:19.566Z,100.00
2022-11-30T05:48:50.948Z,100.00
2022-11-30T05:49:22.670Z,99.95
2022-11-30T05:49:54.017Z,100.00
2022-11-30T05:50:25.389Z,100.00
2022-11-30T05:51:11.319Z,100.00
2022-11-30T05:51:42.719Z,100.00
2022-11-30T05:52:14.195Z,100.00
2022-11-30T05:52:45.634Z,100.00
2022-11-30T05:53:17.103Z,100.00
2022-11-30T05:53:48.864Z,100.00
2022-11-30T05:54:20.255Z,100.00
2022-11-30T05:54:51.610Z,100.00
2022-11-30T05:55:24.158Z,100.00
2022-11-30T05:55:55.610Z,100.00
2022-11-30T05:56:27.218Z,100.00
2022-11-30T05:56:58.627Z,100.00
2022-11-30T05:57:30.034Z,100.00
2022-11-30T05:58:03.796Z,100.00
2022-11-30T05:58:35.882Z,100.00
2022-11-30T05:59:07.282Z,100.00
2022-11-30T05:59:38.846Z,100.00
2022-11-30T06:00:11.015Z,100.00
2022-11-30T06:00:42.748Z,100.00
2022-11-30T06:01:26.201Z,100.00
2022-11-30T06:01:57.622Z,100.00
2022-11-30T06:02:29.131Z,100.00
2022-11-30T06:03:00.798Z,99.72
2022-11-30T06:03:34.018Z,99.80
2022-11-30T06:04:08.858Z,99.81
2022-11-30T06:04:43.400Z,100.00
2022-11-30T06:05:14.815Z,100.00
2022-11-30T06:05:49.382Z,100.00
2022-11-30T06:06:21.657Z,99.62
2022-11-30T06:06:55.579Z,99.91
2022-11-30T06:07:27.226Z,100.00
2022-11-30T06:07:59.740Z,99.59
2022-11-30T06:08:31.330Z,99.89
2022-11-30T06:09:02.807Z,99.60
2022-11-30T06:09:34.315Z,100.00
2022-11-30T06:10:06.350Z,99.48
2022-11-30T06:10:37.860Z,99.07
2022-11-30T06:11:09.298Z,99.53
2022-11-30T06:11:40.972Z,99.77
2022-11-30T06:12:12.479Z,99.55
2022-11-30T06:12:43.970Z,99.54
2022-11-30T06:13:15.726Z,99.18
2022-11-30T06:13:47.088Z,99.34
2022-11-30T06:14:18.506Z,99.41
2022-11-30T06:14:51.127Z,99.03
2022-11-30T06:15:22.649Z,99.47
2022-11-30T06:15:54.159Z,99.19
2022-11-30T06:16:28.336Z,99.15
2022-11-30T06:16:59.864Z,99.54
2022-11-30T06:17:32.600Z,98.96
2022-11-30T06:18:05.529Z,98.79
2022-11-30T06:18:37.889Z,99.27
2022-11-30T06:19:09.364Z,99.26
2022-11-30T06:19:40.716Z,98.94
2022-11-30T06:20:12.572Z,99.03
2022-11-30T06:20:44.024Z,98.95
2022-11-30T06:21:19.589Z,99.07
2022-11-30T06:21:54.450Z,99.13
2022-11-30T06:22:25.898Z,98.83
2022-11-30T06:22:58.887Z,99.06
2022-11-30T06:23:40.568Z,99.19
2022-11-30T06:24:12.466Z,98.82
2022-11-30T06:24:44.048Z,98.75
2022-11-30T06:25:15.681Z,98.23
2022-11-30T06:25:47.404Z,98.52
2022-11-30T06:26:18.900Z,98.83
2022-11-30T06:26:50.303Z,98.47
2022-11-30T06:27:21.781Z,98.73
2022-11-30T06:27:53.924Z,98.86
2022-11-30T06:28:25.371Z,98.17
2022-11-30T06:28:56.926Z,98.14
2022-11-30T06:29:28.333Z,98.09
2022-11-30T06:29:59.831Z,97.81
2022-11-30T06:30:31.324Z,98.04
2022-11-30T06:31:06.204Z,97.96
2022-11-30T06:31:37.576Z,98.01
2022-11-30T06:32:09.216Z,97.94
2022-11-30T06:32:44.712Z,98.28
2022-11-30T06:33:16.291Z,98.37
2022-11-30T06:33:47.803Z,98.01
2022-11-30T06:34:19.494Z,98.40
2022-11-30T06:34:57.128Z,97.80
2022-11-30T06:35:28.558Z,98.08
2022-11-30T06:36:00.217Z,98.24
2022-11-30T06:36:35.733Z,98.50
2022-11-30T06:37:07.858Z,98.04
2022-11-30T06:37:39.258Z,97.72
2022-11-30T06:38:10.667Z,97.80
2022-11-30T06:38:42.063Z,98.07
2022-11-30T06:39:13.460Z,97.98
2022-11-30T06:40:36.522Z,97.68
2022-11-30T06:41:12.760Z,97.35
2022-11-30T06:41:44.261Z,97.70
2022-11-30T06:42:15.931Z,97.60
2022-11-30T06:42:49.645Z,97.81
2022-11-30T06:43:21.074Z,97.38
2022-11-30T06:43:55.055Z,97.80
2022-11-30T06:44:27.641Z,97.22
2022-11-30T06:45:02.375Z,97.79
2022-11-30T06:45:33.969Z,97.51
2022-11-30T06:46:07.108Z,97.78
2022-11-30T06:46:38.681Z,97.32
2022-11-30T06:47:12.963Z,97.77
2022-11-30T06:47:44.320Z,97.33
2022-11-30T06:48:17.082Z,97.74
2022-11-30T06:48:50.785Z,97.71
2022-11-30T06:49:24.611Z,97.26
2022-11-30T06:49:56.009Z,97.17
2022-11-30T06:50:27.488Z,97.90
2022-11-30T06:50:58.961Z,97.68
2022-11-30T06:51:30.307Z,97.19
2022-11-30T06:52:01.775Z,97.01
2022-11-30T06:52:33.253Z,97.50
2022-11-30T06:53:07.142Z,97.78
2022-11-30T06:53:42.952Z,97.32
2022-11-30T06:54:14.448Z,97.18
2022-11-30T06:54:46.233Z,96.82
2022-11-30T06:55:18.260Z,96.95
2022-11-30T06:55:52.123Z,97.21
2022-11-30T06:56:26.738Z,96.86
2022-11-30T06:56:59.987Z,97.12
2022-11-30T06:57:31.361Z,97.30
2022-11-30T06:58:09.583Z,97.09
2022-11-30T06:58:41.953Z,97.63
2022-11-30T06:59:13.342Z,97.24
2022-11-30T06:59:44.797Z,96.76
2022-11-30T07:00:16.815Z,96.67
2022-11-30T07:00:48.481Z,96.64
2022-11-30T07:01:20.103Z,96.64
2022-11-30T07:01:51.543Z,96.82
2022-11-30T07:02:24.678Z,96.85
2022-11-30T07:02:57.251Z,96.60
2022-11-30T07:03:28.668Z,96.89
2022-11-30T07:04:00.279Z,96.70
2022-11-30T07:04:33.198Z,96.74
2022-11-30T07:05:06.069Z,96.40
2022-11-30T07:05:45.232Z,96.58
2022-11-30T07:06:16.973Z,96.78
2022-11-30T07:06:48.386Z,95.79
2022-11-30T07:07:19.839Z,96.22
2022-11-30T07:07:51.357Z,96.55
2022-11-30T07:08:22.955Z,96.29